Time;durP1;ratioP1;P1;durP2;ratioP2;P2;SDS_P1;SDS_P2;PMS_P1;PMS_P2;Temp;Humidity;BMP_temperature;BMP_pressure;BME280_temperature;BME280_humidity;BME280_pressure;Samples;Min_cycle;Max_cycle;Signal;HPM_P1;HPM_P2
2022/10/11 00:02:17;;;;;;;5.50;2.10;;;11.90;99.90;;;;;;4927526;29;20216;-70
2022/10/11 00:04:43;;;;;;;5.10;2.13;;;11.80;99.90;;;;;;4929763;29;20201;-69
2022/10/11 00:07:08;;;;;;;5.50;1.90;;;11.80;99.90;;;;;;4925413;29;20296;-70
2022/10/11 00:09:34;;;;;;;4.20;1.83;;;11.80;99.90;;;;;;4929804;29;20223;-70
2022/10/11 00:11:59;;;;;;;7.63;2.43;;;11.70;99.90;;;;;;4933017;29;20229;-70
2022/10/11 00:14:26;;;;;;;5.80;1.90;;;11.60;99.90;;;;;;4926436;29;20736;-70
2022/10/11 00:16:52;;;;;;;9.43;2.03;;;11.60;99.90;;;;;;4931706;29;21112;-70
2022/10/11 00:19:17;;;;;;;2.97;1.87;;;11.60;99.90;;;;;;4922305;29;20319;-70
2022/10/11 00:21:43;;;;;;;5.77;1.73;;;11.50;99.90;;;;;;4934266;28;20206;-71
2022/10/11 00:24:09;;;;;;;7.57;2.10;;;11.50;99.90;;;;;;4908227;29;21016;-70
2022/10/11 00:26:35;;;;;;;4.10;1.67;;;11.40;99.90;;;;;;4935738;29;20314;-70
2022/10/11 00:29:00;;;;;;;10.00;2.30;;;11.40;99.90;;;;;;4908678;29;20513;-70
2022/10/11 00:31:26;;;;;;;4.63;1.60;;;11.30;99.90;;;;;;4937413;29;20198;-70
2022/10/11 00:33:53;;;;;;;3.80;1.90;;;11.30;99.90;;;;;;4918398;29;20949;-70
2022/10/11 00:36:18;;;;;;;5.13;2.13;;;11.30;99.90;;;;;;4940422;29;20916;-71
2022/10/11 00:38:44;;;;;;;8.80;2.20;;;11.20;99.90;;;;;;4908307;28;20193;-72
2022/10/11 00:41:10;;;;;;;4.27;1.77;;;11.20;99.90;;;;;;4926843;29;20240;-71
2022/10/11 00:43:36;;;;;;;5.17;1.87;;;11.10;99.90;;;;;;4918972;29;20413;-71
2022/10/11 00:46:05;;;;;;;9.40;2.47;;;11.10;99.90;;;;;;4945361;29;20216;-71
2022/10/11 00:48:39;;;;;;;9.03;2.70;;;11.10;99.90;;;;;;4906916;28;20213;-71
2022/10/11 00:51:12;;;;;;;6.37;1.70;;;11.00;99.90;;;;;;4908195;29;20197;-70
2022/10/11 00:53:38;;;;;;;4.17;1.77;;;10.90;99.90;;;;;;4919130;29;20602;-70
2022/10/11 00:56:14;;;;;;;6.80;2.17;;;10.90;99.90;;;;;;4931776;29;20225;-73
2022/10/11 00:58:40;;;;;;;4.53;1.90;;;10.90;99.90;;;;;;4914412;29;20192;-70
2022/10/11 01:01:06;;;;;;;9.13;2.67;;;10.90;99.90;;;;;;4938359;28;20198;-70
2022/10/11 01:03:34;;;;;;;8.97;1.80;;;10.90;99.90;;;;;;4913796;29;20587;-69
2022/10/11 01:06:02;;;;;;;13.73;2.30;;;10.80;99.90;;;;;;4938277;29;20290;-69
2022/10/11 01:08:27;;;;;;;5.33;1.80;;;10.70;99.90;;;;;;4910813;29;20221;-68
2022/10/11 01:10:53;;;;;;;8.00;1.97;;;10.80;99.90;;;;;;4942802;29;20191;-69
2022/10/11 01:13:25;;;;;;;6.97;1.77;;;10.70;99.90;;;;;;4929277;29;20496;-68
2022/10/11 01:16:11;;;;;;;6.57;1.77;;;10.70;99.90;;;;;;4930732;28;20193;-69
2022/10/11 01:18:47;;;;;;;6.97;2.20;;;10.70;99.90;;;;;;4917535;29;20212;-69
2022/10/11 01:21:23;;;;;;;7.40;2.20;;;10.60;99.90;;;;;;4928597;29;20198;-69
2022/10/11 01:24:06;;;;;;;7.53;1.97;;;10.60;99.90;;;;;;4925630;29;20195;-69
2022/10/11 01:27:16;;;;;;;8.27;1.93;;;10.60;99.90;;;;;;4926926;29;20219;-70
2022/10/11 01:30:03;;;;;;;7.37;2.40;;;10.50;99.90;;;;;;4931687;29;20204;-69
2022/10/11 01:32:46;;;;;;;7.33;2.23;;;10.50;99.90;;;;;;4933537;29;20230;-70
2022/10/11 01:35:30;;;;;;;13.10;2.53;;;10.50;99.90;;;;;;4918995;29;20215;-69
2022/10/11 01:38:05;;;;;;;11.80;2.20;;;10.40;99.90;;;;;;4916359;29;20568;-69
2022/10/11 01:40:39;;;;;;;10.20;2.83;;;10.40;99.90;;;;;;4911255;29;20230;-69
2022/10/11 01:43:05;;;;;;;5.33;2.03;;;10.40;99.90;;;;;;4909536;29;20238;-69
2022/10/11 01:45:32;;;;;;;4.30;2.10;;;10.30;99.90;;;;;;4923495;29;20236;-70
2022/10/11 01:48:07;;;;;;;7.97;2.07;;;10.30;99.90;;;;;;4923767;29;20585;-70
2022/10/11 01:50:45;;;;;;;13.47;2.63;;;10.30;99.90;;;;;;4938016;29;20291;-70
2022/10/11 01:53:38;;;;;;;9.60;2.87;;;10.30;99.90;;;;;;4921826;29;20259;-70
2022/10/11 01:56:28;;;;;;;8.27;2.37;;;10.30;99.90;;;;;;4925946;29;20196;-70
2022/10/11 01:59:04;;;;;;;12.17;2.37;;;10.20;99.90;;;;;;4930414;28;20489;-70
2022/10/11 02:02:05;;;;;;;11.27;2.90;;;10.10;99.90;;;;;;4917822;29;20211;-70
2022/10/11 02:04:47;;;;;;;9.30;2.23;;;10.10;99.90;;;;;;4922043;29;20192;-69
2022/10/11 02:07:24;;;;;;;13.43;2.77;;;10.00;99.90;;;;;;4920729;29;20219;-70
2022/10/11 02:10:02;;;;;;;5.20;2.07;;;10.00;99.90;;;;;;4923694;29;20191;-69
2022/10/11 02:12:41;;;;;;;7.20;2.13;;;9.90;99.90;;;;;;4918814;29;20244;-69
2022/10/11 02:15:09;;;;;;;10.23;2.70;;;9.90;99.90;;;;;;4910890;29;20246;-69
2022/10/11 02:17:43;;;;;;;9.17;1.93;;;9.80;99.90;;;;;;4928426;29;20211;-69
2022/10/11 02:20:15;;;;;;;10.20;2.63;;;9.80;99.90;;;;;;4930469;29;20202;-69
2022/10/11 02:22:44;;;;;;;7.80;2.87;;;9.80;99.90;;;;;;4924420;29;20550;-69
2022/10/11 02:25:14;;;;;;;13.47;2.93;;;9.80;99.90;;;;;;4947755;28;20204;-70
2022/10/11 02:27:43;;;;;;;10.43;2.80;;;9.70;99.90;;;;;;4927725;29;20237;-69
2022/10/11 02:30:11;;;;;;;4.40;1.80;;;9.70;99.90;;;;;;4945351;28;20664;-69
2022/10/11 02:32:40;;;;;;;8.90;2.97;;;9.70;99.90;;;;;;4933134;29;20209;-70
2022/10/11 02:35:06;;;;;;;9.27;2.40;;;9.70;99.90;;;;;;4937405;29;20195;-69
2022/10/11 02:37:37;;;;;;;10.13;2.47;;;9.70;99.90;;;;;;4928038;29;20218;-69
2022/10/11 02:40:06;;;;;;;10.50;2.80;;;9.70;99.90;;;;;;4932795;29;20201;-69
2022/10/11 02:42:41;;;;;;;6.20;2.00;;;9.70;99.90;;;;;;4919787;29;20263;-69
2022/10/11 02:45:24;;;;;;;13.13;2.63;;;9.70;99.90;;;;;;4910387;29;20283;-69
2022/10/11 02:47:50;;;;;;;2.97;2.20;;;9.60;99.90;;;;;;4918265;29;20219;-69
2022/10/11 02:50:16;;;;;;;10.23;3.07;;;9.60;99.90;;;;;;4943198;29;20195;-70
2022/10/11 02:52:42;;;;;;;9.03;3.63;;;9.60;99.90;;;;;;4927453;29;20682;-70
2022/10/11 02:55:08;;;;;;;11.30;2.63;;;9.60;99.90;;;;;;4946621;29;20182;-70
2022/10/11 02:57:34;;;;;;;15.60;3.00;;;9.60;99.90;;;;;;4930294;28;20326;-70
2022/10/11 02:59:59;;;;;;;5.43;2.47;;;9.50;99.90;;;;;;4932488;28;20677;-69
2022/10/11 03:02:25;;;;;;;8.10;2.50;;;9.50;99.90;;;;;;4933486;29;20282;-70
2022/10/11 03:04:50;;;;;;;6.23;2.33;;;9.50;99.90;;;;;;4909823;28;20188;-70
2022/10/11 03:07:15;;;;;;;10.40;2.47;;;9.50;99.90;;;;;;4932223;29;20298;-70
2022/10/11 03:09:41;;;;;;;7.90;2.53;;;9.40;99.90;;;;;;4912944;29;20634;-70
2022/10/11 03:12:07;;;;;;;8.17;2.70;;;9.50;99.90;;;;;;4928843;29;20187;-70
2022/10/11 03:14:32;;;;;;;12.33;3.00;;;9.40;99.90;;;;;;4913315;29;20415;-70
2022/10/11 03:16:59;;;;;;;14.90;2.40;;;9.40;99.90;;;;;;4935302;29;20209;-70
2022/10/11 03:19:25;;;;;;;5.70;2.50;;;9.40;99.90;;;;;;4919427;29;20258;-70
2022/10/11 03:21:50;;;;;;;17.97;2.73;;;9.30;99.90;;;;;;4913356;29;20207;-70
2022/10/11 03:24:16;;;;;;;7.07;2.77;;;9.30;99.90;;;;;;4918395;29;20644;-70
2022/10/11 03:26:41;;;;;;;8.73;2.50;;;9.30;99.90;;;;;;4934450;29;20609;-70
2022/10/11 03:29:07;;;;;;;10.40;2.57;;;9.30;99.90;;;;;;4920750;29;20661;-70
2022/10/11 03:31:32;;;;;;;8.23;2.43;;;9.30;99.90;;;;;;4926215;29;20207;-70
2022/10/11 03:33:58;;;;;;;12.33;2.83;;;9.20;99.90;;;;;;4915535;29;20231;-71
2022/10/11 03:36:23;;;;;;;6.93;2.43;;;9.20;99.90;;;;;;4938007;28;20206;-71
2022/10/11 03:38:49;;;;;;;9.77;3.33;;;9.20;99.90;;;;;;4917039;29;20951;-69
2022/10/11 03:41:14;;;;;;;10.23;2.83;;;9.20;99.90;;;;;;4922145;29;20209;-69
2022/10/11 03:43:39;;;;;;;19.70;3.90;;;9.20;99.90;;;;;;4915963;29;20282;-71
2022/10/11 03:46:05;;;;;;;11.43;3.73;;;9.20;99.90;;;;;;4930860;29;20558;-70
2022/10/11 03:48:30;;;;;;;8.97;2.73;;;9.20;99.90;;;;;;4923913;29;20231;-70
2022/10/11 03:50:56;;;;;;;13.67;2.90;;;9.10;99.90;;;;;;4927810;29;21200;-71
2022/10/11 03:53:21;;;;;;;9.97;3.13;;;9.10;99.90;;;;;;4918489;29;20593;-71
2022/10/11 03:55:53;;;;;;;11.63;3.93;;;9.10;99.90;;;;;;4921459;29;20191;-72
2022/10/11 03:58:18;;;;;;;20.57;3.67;;;9.10;99.90;;;;;;4912429;29;20550;-69
2022/10/11 04:00:43;;;;;;;12.03;3.33;;;9.00;99.90;;;;;;4917556;29;20620;-70
2022/10/11 04:03:09;;;;;;;8.17;2.40;;;9.00;99.90;;;;;;4919509;29;20202;-71
2022/10/11 04:05:34;;;;;;;12.80;3.47;;;9.00;99.90;;;;;;4918278;29;20199;-71
2022/10/11 04:08:00;;;;;;;18.37;4.27;;;9.00;99.90;;;;;;4929112;29;20225;-72
2022/10/11 04:10:25;;;;;;;12.10;3.23;;;8.90;99.90;;;;;;4926351;29;20281;-72
2022/10/11 04:12:51;;;;;;;15.57;3.33;;;8.90;99.90;;;;;;4934029;29;20210;-73
2022/10/11 04:15:16;;;;;;;7.57;3.37;;;8.90;99.90;;;;;;4933363;29;20281;-70
2022/10/11 04:17:42;;;;;;;17.53;3.77;;;8.90;99.90;;;;;;4918590;29;20206;-72
2022/10/11 04:20:08;;;;;;;6.13;2.77;;;8.80;99.90;;;;;;4917227;29;20222;-72
2022/10/11 04:22:33;;;;;;;6.33;3.13;;;8.90;99.90;;;;;;4916487;29;20200;-71
2022/10/11 04:24:59;;;;;;;9.17;3.53;;;8.80;99.90;;;;;;4918156;29;20193;-71
2022/10/11 04:27:28;;;;;;;9.23;3.97;;;8.80;99.90;;;;;;4914690;29;20215;-71
2022/10/11 04:29:54;;;;;;;9.63;3.60;;;8.80;99.90;;;;;;4915716;29;20180;-73
2022/10/11 04:32:19;;;;;;;8.10;3.50;;;8.70;99.90;;;;;;4918100;29;20206;-72
2022/10/11 04:34:45;;;;;;;6.83;3.43;;;8.70;99.90;;;;;;4914557;29;20211;-71
2022/10/11 04:37:11;;;;;;;14.90;4.27;;;8.70;99.90;;;;;;4917503;29;20259;-70
2022/10/11 04:39:37;;;;;;;6.97;3.57;;;8.70;99.90;;;;;;4917451;29;20190;-70
2022/10/11 04:42:03;;;;;;;13.80;4.07;;;8.70;99.90;;;;;;4919353;29;20208;-71
2022/10/11 04:44:29;;;;;;;17.03;5.00;;;8.70;99.90;;;;;;4914524;29;20231;-70
2022/10/11 04:46:54;;;;;;;12.23;3.73;;;8.70;99.90;;;;;;4935837;29;20214;-69
2022/10/11 04:49:20;;;;;;;9.63;3.83;;;8.70;99.90;;;;;;4910810;28;20553;-69
2022/10/11 04:51:45;;;;;;;8.57;4.57;;;8.70;99.90;;;;;;4944422;29;20190;-66
2022/10/11 04:54:11;;;;;;;14.33;5.03;;;8.70;99.90;;;;;;4922514;29;20640;-70
2022/10/11 04:56:36;;;;;;;17.70;4.20;;;8.70;99.90;;;;;;4937906;29;20213;-70
2022/10/11 04:59:02;;;;;;;10.77;4.27;;;8.70;99.90;;;;;;4924151;29;20898;-70
2022/10/11 05:01:27;;;;;;;10.73;4.87;;;8.60;99.90;;;;;;4934640;29;20202;-70
2022/10/11 05:03:53;;;;;;;9.50;4.73;;;8.60;99.90;;;;;;4915807;29;20298;-68
2022/10/11 05:06:18;;;;;;;16.07;4.90;;;8.60;99.90;;;;;;4945449;29;20594;-68
2022/10/11 05:08:44;;;;;;;10.70;4.67;;;8.60;99.90;;;;;;4924937;29;20230;-68
2022/10/11 05:11:11;;;;;;;8.03;4.03;;;8.60;99.90;;;;;;4934631;29;20206;-68
2022/10/11 05:13:37;;;;;;;11.77;4.70;;;8.50;99.90;;;;;;4931436;29;20243;-68
2022/10/11 05:16:04;;;;;;;9.00;4.73;;;8.50;99.90;;;;;;4937449;29;20199;-68
2022/10/11 05:18:30;;;;;;;15.63;5.03;;;8.50;99.90;;;;;;4927974;29;20662;-68
2022/10/11 05:21:06;;;;;;;14.73;6.43;;;8.50;99.90;;;;;;4931796;29;20246;-68
2022/10/11 05:23:33;;;;;;;13.13;5.53;;;8.50;99.90;;;;;;4927584;29;20210;-68
2022/10/11 05:25:59;;;;;;;13.47;5.47;;;8.40;99.90;;;;;;4942266;29;20623;-68
2022/10/11 05:28:25;;;;;;;12.83;5.47;;;8.50;99.90;;;;;;4923445;29;20203;-68
2022/10/11 05:30:51;;;;;;;15.80;5.77;;;8.40;99.90;;;;;;4939059;29;20219;-68
2022/10/11 05:33:17;;;;;;;9.97;5.63;;;8.40;99.90;;;;;;4932047;29;20671;-68
2022/10/11 05:35:42;;;;;;;10.67;4.87;;;8.40;99.90;;;;;;4939936;29;20246;-68
2022/10/11 05:38:08;;;;;;;12.83;6.20;;;8.40;99.90;;;;;;4935013;29;20206;-68
2022/10/11 05:40:33;;;;;;;9.40;4.97;;;8.40;99.90;;;;;;4948841;29;20209;-68
2022/10/11 05:42:59;;;;;;;10.03;5.03;;;8.40;99.90;;;;;;4927799;28;20206;-68
2022/10/11 05:45:24;;;;;;;11.43;4.43;;;8.40;99.90;;;;;;4921043;29;20192;-69
2022/10/11 05:47:50;;;;;;;15.77;5.13;;;8.40;99.90;;;;;;4915570;29;20547;-69
2022/10/11 05:50:15;;;;;;;11.73;5.60;;;8.40;99.90;;;;;;4923406;29;20626;-69
2022/10/11 05:52:41;;;;;;;17.47;6.57;;;8.40;99.90;;;;;;4937224;29;20247;-70
2022/10/11 05:55:07;;;;;;;13.23;5.73;;;8.40;99.90;;;;;;4920836;29;20243;-70
2022/10/11 05:57:32;;;;;;;14.73;6.50;;;8.50;99.90;;;;;;4920077;29;20243;-70
2022/10/11 05:59:58;;;;;;;13.90;5.80;;;8.60;99.90;;;;;;4919893;29;20195;-70
2022/10/11 06:02:23;;;;;;;16.90;6.20;;;8.60;99.90;;;;;;4932339;29;20195;-70
2022/10/11 06:04:49;;;;;;;14.37;5.70;;;8.60;99.90;;;;;;4923609;29;20202;-70
2022/10/11 06:07:14;;;;;;;14.23;6.43;;;8.60;99.90;;;;;;4935076;29;20300;-69
2022/10/11 06:09:39;;;;;;;17.00;5.77;;;8.60;99.90;;;;;;4925799;29;20604;-70
2022/10/11 06:12:05;;;;;;;12.97;6.07;;;8.60;99.90;;;;;;4940108;29;20195;-69
2022/10/11 06:14:31;;;;;;;13.17;6.20;;;8.60;99.90;;;;;;4917591;29;20202;-70
2022/10/11 06:16:57;;;;;;;11.77;5.90;;;8.60;99.90;;;;;;4935982;29;20290;-70
2022/10/11 06:19:22;;;;;;;11.77;6.23;;;8.70;99.90;;;;;;4923039;29;20617;-69
2022/10/11 06:21:48;;;;;;;16.20;7.27;;;8.70;99.90;;;;;;4924895;29;20195;-70
2022/10/11 06:24:14;;;;;;;20.67;6.43;;;8.70;99.90;;;;;;4925523;29;20959;-69
2022/10/11 06:26:39;;;;;;;12.07;5.90;;;8.70;99.90;;;;;;4935442;29;20621;-69
2022/10/11 06:29:05;;;;;;;17.53;6.60;;;8.70;99.90;;;;;;4922066;29;20686;-70
2022/10/11 06:31:31;;;;;;;15.27;6.87;;;8.70;99.90;;;;;;4932526;29;20294;-70
2022/10/11 06:33:58;;;;;;;12.10;5.50;;;8.80;99.90;;;;;;4921888;29;20207;-70
2022/10/11 06:36:23;;;;;;;18.70;8.33;;;8.80;99.90;;;;;;4920716;29;20675;-70
2022/10/11 06:38:53;;;;;;;11.33;6.27;;;8.80;99.90;;;;;;4920817;29;20242;-70
2022/10/11 06:41:22;;;;;;;20.27;6.23;;;8.90;99.90;;;;;;4925203;29;20215;-71
2022/10/11 06:43:48;;;;;;;10.40;5.80;;;8.90;99.90;;;;;;4924017;29;20298;-71
2022/10/11 06:46:14;;;;;;;16.63;6.27;;;9.00;99.90;;;;;;4937988;29;20197;-71
2022/10/11 06:48:44;;;;;;;15.53;5.50;;;9.00;99.90;;;;;;4924964;29;20565;-71
2022/10/11 06:51:11;;;;;;;12.60;5.60;;;9.10;99.90;;;;;;4931291;29;20636;-72
2022/10/11 06:53:36;;;;;;;9.97;6.43;;;9.10;99.90;;;;;;4933581;29;20241;-70
2022/10/11 06:56:10;;;;;;;19.43;6.80;;;9.10;99.90;;;;;;4931625;28;20194;-70
2022/10/11 06:58:36;;;;;;;13.33;5.30;;;9.20;99.90;;;;;;4923442;29;20206;-71
2022/10/11 07:01:04;;;;;;;12.20;5.60;;;9.20;99.90;;;;;;4936191;29;20464;-72
2022/10/11 07:03:30;;;;;;;12.33;5.40;;;9.30;99.90;;;;;;4918549;29;20326;-72
2022/10/11 07:06:01;;;;;;;17.13;4.90;;;9.30;99.90;;;;;;4926688;29;20200;-72
2022/10/11 07:08:26;;;;;;;12.93;5.37;;;9.40;99.90;;;;;;4936957;29;20210;-72
2022/10/11 07:10:52;;;;;;;11.93;5.13;;;9.40;99.90;;;;;;4927669;29;20203;-72
2022/10/11 07:13:17;;;;;;;8.37;4.87;;;9.40;99.90;;;;;;4931649;29;20328;-72
2022/10/11 07:15:43;;;;;;;9.63;4.43;;;9.50;99.90;;;;;;4909735;28;20264;-71
2022/10/11 07:18:08;;;;;;;7.83;4.73;;;9.60;99.90;;;;;;4934226;29;20209;-70
2022/10/11 07:20:34;;;;;;;13.37;5.17;;;9.60;99.90;;;;;;4934834;29;20198;-71
2022/10/11 07:23:00;;;;;;;14.30;5.90;;;9.70;99.90;;;;;;4912958;28;20226;-72
2022/10/11 07:25:25;;;;;;;10.13;5.07;;;9.80;99.90;;;;;;4920002;29;20649;-71
2022/10/11 07:27:51;;;;;;;8.57;4.83;;;9.90;99.90;;;;;;4928898;29;20265;-70
2022/10/11 07:30:16;;;;;;;13.80;5.03;;;9.90;99.90;;;;;;4922083;29;20416;-71
2022/10/11 07:32:41;;;;;;;10.67;5.40;;;9.90;99.90;;;;;;4922048;29;20214;-72
2022/10/11 07:35:07;;;;;;;15.00;5.30;;;10.00;99.90;;;;;;4916666;29;20179;-71
2022/10/11 07:37:33;;;;;;;14.53;4.83;;;10.10;99.90;;;;;;4926588;29;20685;-71
2022/10/11 07:39:58;;;;;;;12.57;5.17;;;10.20;99.90;;;;;;4918523;29;20246;-71
2022/10/11 07:42:24;;;;;;;12.67;4.70;;;10.30;99.90;;;;;;4928067;29;20192;-71
2022/10/11 07:44:49;;;;;;;11.17;4.73;;;10.30;99.90;;;;;;4909834;29;20259;-71
2022/10/11 07:47:15;;;;;;;10.23;4.70;;;10.30;99.90;;;;;;4941560;28;20269;-71
2022/10/11 07:49:40;;;;;;;11.40;3.73;;;10.40;99.90;;;;;;4920026;29;20684;-71
2022/10/11 07:52:06;;;;;;;14.27;4.77;;;10.40;99.90;;;;;;4943088;29;20224;-71
2022/10/11 07:54:32;;;;;;;11.80;4.50;;;10.50;99.90;;;;;;4907058;29;20271;-71
2022/10/11 07:56:58;;;;;;;11.93;4.17;;;10.60;99.90;;;;;;4921698;29;20301;-70
2022/10/11 07:59:38;;;;;;;8.93;3.83;;;10.60;99.90;;;;;;4906812;29;20657;-70
2022/10/11 08:02:03;;;;;;;12.07;3.90;;;10.70;99.90;;;;;;4923856;29;20188;-72
2022/10/11 08:04:29;;;;;;;14.37;4.07;;;10.70;99.90;;;;;;4914723;29;20212;-72
2022/10/11 08:06:54;;;;;;;12.00;3.97;;;10.70;99.90;;;;;;4917638;29;20315;-71
2022/10/11 08:09:20;;;;;;;12.37;4.03;;;10.80;99.90;;;;;;4916668;29;20937;-75
2022/10/11 08:11:45;;;;;;;10.70;3.60;;;10.80;99.90;;;;;;4917902;29;20192;-70
2022/10/11 08:14:11;;;;;;;14.30;3.63;;;10.90;99.90;;;;;;4917314;28;20214;-70
2022/10/11 08:16:37;;;;;;;5.20;3.30;;;10.90;99.90;;;;;;4918872;29;20662;-71
2022/10/11 08:19:04;;;;;;;12.37;3.77;;;11.00;99.90;;;;;;4917625;29;20222;-71
2022/10/11 08:21:30;;;;;;;14.47;3.60;;;11.10;99.90;;;;;;4938575;28;20203;-75
2022/10/11 08:23:56;;;;;;;9.17;3.60;;;11.10;99.90;;;;;;4913304;29;20536;-76
2022/10/11 08:26:21;;;;;;;6.70;3.50;;;11.20;99.90;;;;;;4919730;28;20207;-75
2022/10/11 08:28:47;;;;;;;12.23;3.77;;;11.20;99.90;;;;;;4914458;29;20204;-75
2022/10/11 08:31:14;;;;;;;9.53;3.70;;;11.30;99.90;;;;;;4921313;29;20279;-81
2022/10/11 08:33:40;;;;;;;8.87;3.30;;;11.40;99.90;;;;;;4920565;29;20212;-74
2022/10/11 08:36:05;;;;;;;9.77;3.73;;;11.40;99.90;;;;;;4922115;29;20195;-73
2022/10/11 08:38:32;;;;;;;7.07;3.33;;;11.50;99.90;;;;;;4915973;29;20323;-76
2022/10/11 08:40:59;;;;;;;9.00;4.23;;;11.60;99.90;;;;;;4919186;29;20193;-75
2022/10/11 08:43:37;;;;;;;11.23;4.47;;;11.70;99.90;;;;;;4916099;29;20205;-74
2022/10/11 08:46:05;;;;;;;7.47;3.97;;;11.60;99.90;;;;;;4916727;29;20370;-79
2022/10/11 08:48:40;;;;;;;11.07;4.07;;;11.70;99.90;;;;;;4910995;29;20865;-80
2022/10/11 08:51:31;;;;;;;7.60;3.40;;;11.70;99.90;;;;;;4918276;29;20279;-79
2022/10/11 08:54:05;;;;;;;11.63;4.03;;;11.70;99.90;;;;;;4917978;28;20703;-76
2022/10/11 08:56:35;;;;;;;7.70;3.70;;;11.70;99.90;;;;;;4907248;29;20195;-74
2022/10/11 08:59:25;;;;;;;10.83;3.40;;;11.80;99.90;;;;;;4915723;29;20672;-75
2022/10/11 09:02:03;;;;;;;8.17;4.10;;;12.00;99.90;;;;;;4918456;29;20224;-74
2022/10/11 09:04:31;;;;;;;9.47;3.30;;;11.90;99.90;;;;;;4908796;29;20694;-76
2022/10/11 09:07:32;;;;;;;10.87;3.67;;;12.10;99.90;;;;;;4933948;29;20213;-75
2022/10/11 09:10:16;;;;;;;10.13;3.23;;;12.10;99.90;;;;;;4906083;29;20203;-74
2022/10/11 09:13:05;;;;;;;5.83;2.80;;;12.10;99.90;;;;;;4922308;29;20308;-76
2022/10/11 09:15:58;;;;;;;8.20;3.10;;;12.10;99.90;;;;;;4907584;29;20190;-75
2022/10/11 09:18:41;;;;;;;10.10;2.97;;;12.10;99.90;;;;;;4911918;29;20212;-76
2022/10/11 09:21:40;;;;;;;10.63;3.30;;;12.20;99.90;;;;;;4916811;29;20288;-76
2022/10/11 09:24:23;;;;;;;7.70;3.27;;;12.40;99.90;;;;;;4911956;28;20210;-78
2022/10/11 09:26:58;;;;;;;7.40;2.50;;;12.40;99.90;;;;;;4916617;29;20192;-75
2022/10/11 09:29:57;;;;;;;11.17;3.13;;;12.70;99.90;;;;;;4917463;29;20288;-78
2022/10/11 09:32:29;;;;;;;8.50;3.37;;;12.70;99.90;;;;;;4906483;29;20190;-78
2022/10/11 09:35:00;;;;;;;12.77;2.90;;;12.70;99.90;;;;;;4914343;28;20299;-75
2022/10/11 09:37:41;;;;;;;7.80;2.90;;;12.70;99.90;;;;;;4925822;29;20204;-74
2022/10/11 09:40:09;;;;;;;5.47;2.40;;;12.80;99.90;;;;;;4908389;29;20260;-80
2022/10/11 09:42:35;;;;;;;12.97;3.50;;;12.90;99.90;;;;;;4940590;29;20272;-74
2022/10/11 09:45:01;;;;;;;7.47;2.17;;;12.80;99.90;;;;;;4913046;29;20210;-72
2022/10/11 09:47:29;;;;;;;7.70;2.77;;;13.00;99.90;;;;;;4926433;29;20217;-76
2022/10/11 09:50:02;;;;;;;15.33;2.73;;;13.10;99.90;;;;;;4923761;29;20206;-74
2022/10/11 09:52:28;;;;;;;8.90;3.07;;;13.10;99.90;;;;;;4920707;29;20228;-75
2022/10/11 09:54:57;;;;;;;7.07;2.77;;;13.20;99.90;;;;;;4913685;28;20201;-76
2022/10/11 09:57:31;;;;;;;7.50;2.30;;;13.20;99.90;;;;;;4917031;29;20592;-80
2022/10/11 10:00:03;;;;;;;7.40;2.10;;;13.30;99.90;;;;;;4912871;29;20585;-77
2022/10/11 10:02:37;;;;;;;8.17;2.37;;;13.50;99.90;;;;;;4930627;29;20670;-73
2022/10/11 10:05:05;;;;;;;4.17;2.07;;;13.50;99.90;;;;;;4912427;29;20224;-77
2022/10/11 10:07:33;;;;;;;6.07;2.00;;;13.60;99.90;;;;;;4925654;29;20246;-76
2022/10/11 10:10:19;;;;;;;6.93;2.23;;;13.60;99.90;;;;;;4919574;29;20218;-76
2022/10/11 10:12:53;;;;;;;8.93;2.37;;;13.60;99.90;;;;;;4909503;29;20206;-72
2022/10/11 10:15:19;;;;;;;8.70;3.13;;;13.80;99.90;;;;;;4918097;29;20268;-73
2022/10/11 10:17:49;;;;;;;7.63;2.17;;;14.00;99.90;;;;;;4941792;29;20197;-73
2022/10/11 10:20:49;;;;;;;11.50;2.40;;;14.00;99.90;;;;;;4928151;29;20244;-68
2022/10/11 10:23:28;;;;;;;7.33;2.57;;;14.10;99.90;;;;;;4908922;29;20206;-73
2022/10/11 10:26:11;;;;;;;8.83;2.63;;;14.30;99.90;;;;;;4918459;29;20731;-75
2022/10/11 10:28:37;;;;;;;7.43;2.27;;;14.50;99.90;;;;;;4920486;29;20673;-77
2022/10/11 10:31:02;;;;;;;7.73;2.37;;;14.40;99.90;;;;;;4912478;29;20187;-74
2022/10/11 10:33:33;;;;;;;11.33;2.40;;;14.40;99.90;;;;;;4938696;29;20209;-74
2022/10/11 10:36:16;;;;;;;8.07;2.60;;;14.50;99.90;;;;;;4920175;29;20732;-76
2022/10/11 10:38:50;;;;;;;6.77;2.47;;;14.60;99.90;;;;;;4914512;29;20211;-76
2022/10/11 10:41:17;;;;;;;9.10;2.10;;;14.80;99.90;;;;;;4918445;29;20178;-77
2022/10/11 10:43:51;;;;;;;7.30;2.43;;;14.90;99.90;;;;;;4918166;29;20305;-75
2022/10/11 10:46:32;;;;;;;7.50;2.33;;;15.00;99.90;;;;;;4916802;29;20334;-79
2022/10/11 10:49:11;;;;;;;6.77;2.00;;;14.80;99.90;;;;;;4914929;29;20195;-80
2022/10/11 10:51:51;;;;;;;6.33;1.87;;;14.90;99.90;;;;;;4916685;29;20482;-77
2022/10/11 10:54:45;;;;;;;6.00;2.10;;;14.90;99.90;;;;;;4914526;29;20223;-72
2022/10/11 10:57:27;;;;;;;13.47;3.13;;;14.50;99.90;;;;;;4914951;29;20191;-74
2022/10/11 11:00:16;;;;;;;7.37;2.23;;;14.70;99.90;;;;;;4919978;29;20783;-74
2022/10/11 11:03:04;;;;;;;7.13;2.57;;;14.80;99.90;;;;;;4916686;29;20285;-73
2022/10/11 11:05:49;;;;;;;8.97;1.73;;;15.00;99.90;;;;;;4914477;29;20281;-74
2022/10/11 11:08:36;;;;;;;7.07;2.13;;;15.30;99.90;;;;;;4908686;29;20308;-74
2022/10/11 11:11:41;;;;;;;7.17;2.00;;;15.30;99.90;;;;;;4927713;29;20191;-74
2022/10/11 11:14:25;;;;;;;7.80;2.50;;;15.20;99.90;;;;;;4913686;29;20217;-76
2022/10/11 11:17:05;;;;;;;10.27;2.67;;;15.20;99.90;;;;;;4924605;29;20202;-78
2022/10/11 11:19:39;;;;;;;7.80;2.37;;;15.60;99.90;;;;;;4911564;29;20217;-77
2022/10/11 11:22:26;;;;;;;7.30;1.83;;;15.90;99.90;;;;;;4920057;29;20281;-78
2022/10/11 11:25:06;;;;;;;4.03;1.90;;;15.70;99.90;;;;;;4913817;29;20208;-77
2022/10/11 11:27:54;;;;;;;7.17;2.17;;;15.90;99.90;;;;;;4927818;29;20297;-77
2022/10/11 11:30:25;;;;;;;8.80;2.60;;;16.10;99.90;;;;;;4906823;29;20211;-77
2022/10/11 11:33:38;;;;;;;9.63;2.93;;;16.30;99.90;;;;;;4908934;29;20241;-78
2022/10/11 11:36:20;;;;;;;10.33;2.20;;;16.50;99.90;;;;;;4884655;29;20203;-78
2022/10/11 11:38:58;;;;;;;10.20;2.40;;;16.70;99.90;;;;;;4904867;29;20231;-78
2022/10/11 11:41:29;;;;;;;8.67;2.33;;;16.40;99.90;;;;;;4916165;29;20198;-77
2022/10/11 11:44:17;;;;;;;6.97;2.07;;;16.10;99.90;;;;;;4910941;29;20242;-76
2022/10/11 11:46:48;;;;;;;8.33;2.57;;;16.10;99.90;;;;;;4912594;29;20210;-77
2022/10/11 11:49:19;;;;;;;11.80;2.27;;;16.50;99.50;;;;;;4911980;29;20242;-76
2022/10/11 11:51:45;;;;;;;7.33;2.17;;;16.70;97.40;;;;;;4917671;29;20191;-75
2022/10/11 11:54:20;;;;;;;7.17;1.80;;;16.70;96.70;;;;;;4894463;29;20430;-75
2022/10/11 11:56:53;;;;;;;8.83;1.87;;;16.80;97.40;;;;;;4896021;29;20192;-77
2022/10/11 11:59:44;;;;;;;7.27;2.07;;;16.90;96.70;;;;;;4893020;29;20665;-79
2022/10/11 12:02:33;;;;;;;7.30;1.97;;;16.50;96.30;;;;;;4894722;29;20200;-77
2022/10/11 12:04:59;;;;;;;7.77;2.23;;;16.00;97.40;;;;;;4896212;29;20223;-78
2022/10/11 12:07:26;;;;;;;7.20;2.70;;;16.30;97.80;;;;;;4892878;29;20687;-78
2022/10/11 12:10:13;;;;;;;3.77;1.67;;;16.70;97.30;;;;;;4887939;29;20208;-76
2022/10/11 12:12:39;;;;;;;6.10;1.93;;;16.60;97.60;;;;;;4888253;29;20645;-76
2022/10/11 12:15:07;;;;;;;9.30;2.43;;;16.70;97.40;;;;;;4892283;29;20212;-74
2022/10/11 12:17:53;;;;;;;11.47;2.07;;;16.40;97.10;;;;;;4900618;29;20298;-81
2022/10/11 12:20:23;;;;;;;8.87;2.20;;;16.20;97.90;;;;;;4893838;29;20341;-78
2022/10/11 12:22:48;;;;;;;7.13;2.30;;;15.80;98.30;;;;;;4892456;29;20215;-80
2022/10/11 12:25:14;;;;;;;7.53;2.33;;;15.70;99.20;;;;;;4893146;29;20211;-79
2022/10/11 12:27:49;;;;;;;8.00;2.30;;;15.70;99.10;;;;;;4898189;29;20215;-85
2022/10/11 12:30:45;;;;;;;5.40;1.97;;;16.10;98.20;;;;;;4890146;29;20255;-78
2022/10/11 12:33:23;;;;;;;9.97;2.33;;;16.70;97.60;;;;;;4908196;29;20191;-81
2022/10/11 12:35:51;;;;;;;5.97;2.10;;;17.20;97.80;;;;;;4892604;29;20226;-79
2022/10/11 12:38:21;;;;;;;5.17;1.80;;;17.80;96.50;;;;;;4897677;29;20196;-79
2022/10/11 12:40:49;;;;;;;8.77;2.00;;;18.10;96.50;;;;;;4895904;29;20212;-76
2022/10/11 12:43:14;;;;;;;6.60;2.00;;;18.50;93.20;;;;;;4906415;29;20547;-76
2022/10/11 12:45:42;;;;;;;5.57;1.77;;;18.70;92.60;;;;;;4889745;29;20271;-79
2022/10/11 12:48:21;;;;;;;5.13;2.43;;;18.80;91.30;;;;;;4903153;29;20226;-79
2022/10/11 12:51:25;;;;;;;4.30;1.93;;;18.70;90.40;;;;;;4904939;29;20204;-78
2022/10/11 12:54:24;;;;;;;3.57;1.47;;;18.50;89.20;;;;;;4903600;29;20223;-81
2022/10/11 12:57:08;;;;;;;4.80;2.03;;;18.50;87.90;;;;;;4916746;29;20205;-81
2022/10/11 12:59:39;;;;;;;9.17;1.90;;;18.00;90.10;;;;;;4928798;28;20204;-81
2022/10/11 13:02:25;;;;;;;8.07;2.57;;;17.40;90.50;;;;;;4930359;29;20250;-82
2022/10/11 13:04:50;;;;;;;5.17;1.90;;;16.90;91.40;;;;;;4932223;29;20269;-82
2022/10/11 13:07:22;;;;;;;8.73;2.10;;;16.60;90.60;;;;;;4935806;29;20681;-80